Time;durP1;ratioP1;P1;durP2;ratioP2;P2;SDS_P1;SDS_P2;PMS_P1;PMS_P2;Temp;Humidity;BMP_temperature;BMP_pressure;BME280_temperature;BME280_humidity;BME280_pressure;Samples;Min_cycle;Max_cycle;Signal;HPM_P1;HPM_P2
2022/06/21 00:01:20;;;;;;;10.00;9.70;;;12.20;99.90;;;;;;5046787;28;20280;-79
2022/06/21 00:04:02;;;;;;;10.20;9.90;;;12.10;99.90;;;;;;5047160;28;20232;-79
2022/06/21 00:06:30;;;;;;;9.97;9.67;;;12.10;99.90;;;;;;5046855;28;20243;-79
2022/06/21 00:08:57;;;;;;;10.10;9.80;;;12.00;99.90;;;;;;5047832;28;20250;-79
2022/06/21 00:11:29;;;;;;;9.80;9.50;;;11.90;99.90;;;;;;5057777;28;20326;-78
2022/06/21 00:13:57;;;;;;;10.00;9.70;;;11.80;99.90;;;;;;5059185;28;20265;-77
2022/06/21 00:16:29;;;;;;;10.00;9.70;;;11.80;99.90;;;;;;5058905;28;20228;-78
2022/06/21 00:18:58;;;;;;;10.00;9.70;;;11.80;99.90;;;;;;5060171;28;20258;-78
2022/06/21 00:24:16;;;;;;;9.90;9.60;;;11.80;99.90;;;;;;5058189;28;20227;-79
2022/06/21 00:26:44;;;;;;;9.73;9.43;;;11.80;99.90;;;;;;5058822;28;20238;-79
2022/06/21 00:29:13;;;;;;;9.80;9.50;;;11.80;99.90;;;;;;5060336;28;20238;-77
2022/06/21 00:31:53;;;;;;;9.77;9.47;;;11.80;99.90;;;;;;5060300;28;20222;-79
2022/06/21 00:34:29;;;;;;;10.00;9.70;;;11.80;99.90;;;;;;5058780;28;20216;-78
2022/06/21 00:37:00;;;;;;;9.67;9.37;;;11.70;99.90;;;;;;5059959;28;20234;-78
2022/06/21 00:39:28;;;;;;;9.90;9.60;;;11.70;99.90;;;;;;5059026;28;20227;-79
2022/06/21 00:41:58;;;;;;;10.00;9.70;;;11.70;99.90;;;;;;5059844;28;20211;-78
2022/06/21 00:44:36;;;;;;;9.80;9.50;;;11.70;99.90;;;;;;5059402;28;20222;-79
2022/06/21 00:47:15;;;;;;;10.03;9.73;;;11.70;99.90;;;;;;5059385;28;20247;-78
2022/06/21 00:49:55;;;;;;;10.30;10.00;;;11.60;99.90;;;;;;5057297;28;20215;-78
2022/06/21 00:52:31;;;;;;;9.90;9.60;;;11.50;99.90;;;;;;5059231;28;20211;-80
2022/06/21 00:55:10;;;;;;;10.10;9.80;;;11.40;99.90;;;;;;5055684;28;20227;-79
2022/06/21 00:57:47;;;;;;;10.10;9.80;;;11.30;99.90;;;;;;5053786;28;20265;-79
2022/06/21 01:00:35;;;;;;;9.97;9.67;;;11.20;99.90;;;;;;5052966;28;20223;-79
2022/06/21 01:03:15;;;;;;;10.10;9.80;;;11.20;99.90;;;;;;5054016;28;20215;-79
2022/06/21 01:05:51;;;;;;;9.90;9.60;;;11.10;99.90;;;;;;5053934;28;20239;-79
2022/06/21 01:11:16;;;;;;;10.20;9.90;;;11.00;99.90;;;;;;5055720;28;20227;-79
2022/06/21 01:13:47;;;;;;;10.13;9.83;;;10.90;99.90;;;;;;5055256;28;20274;-79
2022/06/21 01:16:15;;;;;;;10.10;9.80;;;10.80;99.90;;;;;;5055364;28;20235;-78
2022/06/21 01:18:44;;;;;;;10.17;9.87;;;10.80;99.90;;;;;;5055955;28;20291;-79
2022/06/21 01:21:22;;;;;;;10.27;9.97;;;10.80;99.90;;;;;;5052030;28;20247;-79
2022/06/21 01:24:01;;;;;;;10.10;9.80;;;10.80;99.90;;;;;;5051334;28;20279;-79
2022/06/21 01:26:48;;;;;;;10.17;9.87;;;10.70;99.90;;;;;;5049319;28;20261;-79
2022/06/21 01:29:19;;;;;;;10.10;9.80;;;10.70;99.90;;;;;;5049917;28;20259;-79
2022/06/21 01:31:48;;;;;;;10.00;9.70;;;10.60;99.90;;;;;;5048455;28;20246;-79
2022/06/21 01:34:28;;;;;;;10.30;10.00;;;10.60;99.90;;;;;;5047720;28;20231;-81
2022/06/21 01:37:03;;;;;;;10.00;9.70;;;10.60;99.90;;;;;;5047712;28;20262;-79
2022/06/21 01:39:41;;;;;;;10.20;9.90;;;10.50;99.90;;;;;;5048144;28;20247;-79
2022/06/21 01:42:19;;;;;;;10.10;9.80;;;10.50;99.90;;;;;;5047744;28;20306;-79
2022/06/21 01:47:46;;;;;;;10.30;10.00;;;10.40;99.90;;;;;;5047015;28;20231;-80
2022/06/21 01:50:14;;;;;;;10.00;9.70;;;10.40;99.90;;;;;;5047907;28;20326;-80
2022/06/21 01:52:46;;;;;;;10.20;9.90;;;10.40;99.90;;;;;;5047403;28;20242;-79
2022/06/21 01:55:23;;;;;;;10.20;9.90;;;10.30;99.90;;;;;;5047055;28;20235;-79
2022/06/21 01:58:00;;;;;;;9.83;9.53;;;10.30;99.90;;;;;;5048253;28;20239;-79
2022/06/21 02:00:31;;;;;;;9.90;9.60;;;10.40;99.90;;;;;;5051314;28;20254;-79
2022/06/21 02:03:07;;;;;;;9.87;9.57;;;10.40;99.90;;;;;;5041119;28;20314;-79
2022/06/21 02:05:40;;;;;;;9.70;9.40;;;10.40;99.90;;;;;;5053291;28;20210;-78
2022/06/21 02:08:15;;;;;;;9.70;9.40;;;10.50;99.90;;;;;;5056434;28;20243;-79
2022/06/21 02:10:56;;;;;;;9.73;9.43;;;10.50;99.90;;;;;;5056906;28;20255;-78
2022/06/21 02:13:32;;;;;;;9.50;9.20;;;10.50;99.90;;;;;;5054136;28;20235;-79
2022/06/21 02:16:10;;;;;;;9.80;9.50;;;10.40;99.90;;;;;;5051430;28;20234;-80
2022/06/21 02:18:48;;;;;;;9.80;9.50;;;10.40;99.90;;;;;;5050305;28;20255;-80
2022/06/21 02:21:28;;;;;;;9.87;9.57;;;10.40;99.90;;;;;;5049140;28;20235;-79
2022/06/21 02:23:58;;;;;;;9.77;9.47;;;10.40;99.90;;;;;;5047843;28;20298;-80
2022/06/21 02:26:37;;;;;;;9.90;9.60;;;10.30;99.90;;;;;;5047267;28;20314;-79
2022/06/21 02:29:16;;;;;;;9.70;9.40;;;10.30;99.90;;;;;;5048792;28;20243;-79
2022/06/21 02:31:44;;;;;;;9.90;9.60;;;10.40;99.90;;;;;;5047718;28;20266;-79
2022/06/21 02:34:21;;;;;;;9.80;9.50;;;10.30;99.90;;;;;;5047561;28;20315;-79
2022/06/21 02:36:55;;;;;;;9.60;9.30;;;10.30;99.90;;;;;;5048568;28;20314;-79
2022/06/21 02:39:29;;;;;;;9.43;9.13;;;10.30;99.90;;;;;;5048862;28;20231;-80
2022/06/21 02:42:07;;;;;;;9.57;9.27;;;10.20;99.90;;;;;;5049224;28;20253;-79
2022/06/21 02:44:46;;;;;;;10.10;9.80;;;10.20;99.90;;;;;;5048275;28;20227;-79
2022/06/21 02:47:17;;;;;;;10.20;9.90;;;10.20;99.90;;;;;;5048441;28;20330;-79
2022/06/21 02:49:54;;;;;;;10.17;9.87;;;10.20;99.90;;;;;;5048614;28;20248;-79
2022/06/21 02:52:32;;;;;;;10.43;10.13;;;10.20;99.90;;;;;;5049603;28;20303;-79
2022/06/21 02:55:28;;;;;;;10.70;10.40;;;10.20;99.90;;;;;;5048890;28;20298;-79
2022/06/21 02:58:07;;;;;;;10.63;10.33;;;10.20;99.90;;;;;;5047903;28;20322;-79
2022/06/21 03:00:38;;;;;;;10.70;10.40;;;10.10;99.90;;;;;;5048459;28;20231;-80
2022/06/21 03:03:08;;;;;;;10.60;10.30;;;10.10;99.90;;;;;;5048878;28;20257;-79
2022/06/21 03:05:36;;;;;;;10.73;10.43;;;10.10;99.90;;;;;;5048592;28;20224;-79
2022/06/21 03:08:07;;;;;;;11.00;10.70;;;10.10;99.90;;;;;;5048528;28;20311;-79
2022/06/21 03:10:42;;;;;;;11.00;10.70;;;10.10;99.90;;;;;;5048490;28;20715;-79
2022/06/21 03:13:23;;;;;;;10.83;10.53;;;10.00;99.90;;;;;;5049040;28;20235;-80
2022/06/21 03:18:58;;;;;;;10.80;10.50;;;10.00;99.90;;;;;;5048495;28;20283;-80
2022/06/21 03:21:33;;;;;;;10.37;10.07;;;9.90;99.90;;;;;;5048631;28;20239;-79
2022/06/21 03:24:04;;;;;;;10.00;9.70;;;9.90;99.90;;;;;;5049451;28;20227;-80
2022/06/21 03:26:33;;;;;;;10.10;9.80;;;9.90;99.90;;;;;;5050930;28;20254;-79
2022/06/21 03:29:00;;;;;;;10.30;10.00;;;9.90;99.90;;;;;;5047688;28;20255;-79
2022/06/21 03:31:39;;;;;;;10.40;10.10;;;9.90;99.90;;;;;;5043598;28;20245;-78
2022/06/21 03:34:11;;;;;;;10.20;9.90;;;9.90;99.90;;;;;;5055708;28;20254;-78
2022/06/21 03:36:38;;;;;;;10.30;10.00;;;9.90;99.90;;;;;;5053720;28;20263;-79
2022/06/21 03:39:17;;;;;;;10.07;9.77;;;10.00;99.90;;;;;;5052744;28;20240;-80
2022/06/21 03:41:45;;;;;;;9.97;9.67;;;10.00;99.90;;;;;;5050664;28;20291;-79
2022/06/21 03:44:23;;;;;;;10.43;10.13;;;10.00;99.90;;;;;;5049024;28;20235;-79
2022/06/21 03:47:05;;;;;;;10.23;9.93;;;10.00;99.90;;;;;;5047446;28;20231;-79
2022/06/21 03:49:43;;;;;;;10.30;10.00;;;10.00;99.90;;;;;;5047668;28;20267;-79
2022/06/21 03:52:41;;;;;;;10.60;10.30;;;10.00;99.90;;;;;;5047486;28;20231;-79
2022/06/21 03:55:16;;;;;;;10.33;10.03;;;10.00;99.90;;;;;;5046901;28;20236;-79
2022/06/21 03:57:52;;;;;;;10.30;10.00;;;9.90;99.90;;;;;;5061852;23;20266;-80
2022/06/21 04:00:21;;;;;;;10.33;10.03;;;9.80;99.90;;;;;;5021594;28;20234;-80
2022/06/21 04:02:58;;;;;;;9.93;9.63;;;9.80;99.90;;;;;;5019870;28;20240;-81
2022/06/21 04:05:32;;;;;;;10.20;9.90;;;9.90;99.90;;;;;;5019979;28;20262;-80
2022/06/21 04:08:07;;;;;;;10.17;9.87;;;9.90;99.90;;;;;;5019772;28;20808;-80
2022/06/21 04:10:43;;;;;;;10.13;9.83;;;10.00;99.90;;;;;;5020025;28;20222;-80
2022/06/21 04:13:20;;;;;;;10.10;9.80;;;10.00;99.90;;;;;;5019586;28;20235;-80
2022/06/21 04:15:53;;;;;;;9.87;9.57;;;10.10;99.90;;;;;;5019726;28;20291;-79
2022/06/21 04:18:28;;;;;;;10.10;9.80;;;10.10;99.90;;;;;;5019391;28;20240;-81
2022/06/21 04:21:02;;;;;;;10.10;9.80;;;10.10;99.90;;;;;;5020596;28;20208;-80
2022/06/21 04:23:37;;;;;;;10.10;9.80;;;10.20;99.90;;;;;;5019867;28;20286;-81
2022/06/21 04:26:12;;;;;;;9.87;9.57;;;10.30;99.90;;;;;;5020295;28;20309;-80
2022/06/21 04:28:47;;;;;;;10.07;9.77;;;10.40;99.90;;;;;;5019484;28;20327;-81
2022/06/21 04:31:29;;;;;;;10.00;9.70;;;10.50;99.90;;;;;;5023523;28;20230;-81
2022/06/21 04:34:04;;;;;;;10.00;9.70;;;10.50;99.90;;;;;;5021904;28;20739;-81
2022/06/21 04:36:38;;;;;;;10.07;9.77;;;10.50;99.90;;;;;;5019862;28;20232;-80
2022/06/21 04:39:12;;;;;;;10.03;9.73;;;10.70;99.90;;;;;;5018065;28;20327;-79
2022/06/21 04:41:47;;;;;;;10.00;9.70;;;10.70;99.90;;;;;;5022638;28;20220;-77
2022/06/21 04:44:21;;;;;;;9.90;9.60;;;10.90;99.90;;;;;;5039181;28;20219;-79
2022/06/21 04:46:54;;;;;;;10.03;9.73;;;10.90;99.90;;;;;;5039548;28;20296;-78
2022/06/21 04:49:28;;;;;;;10.10;9.80;;;11.10;99.90;;;;;;5039206;28;20260;-78
2022/06/21 04:52:04;;;;;;;10.20;9.90;;;11.20;99.90;;;;;;5039148;28;20226;-78
2022/06/21 04:54:35;;;;;;;10.33;10.03;;;11.40;99.90;;;;;;5037603;28;20243;-82
2022/06/21 04:57:09;;;;;;;10.27;9.97;;;11.50;99.90;;;;;;5022398;28;20260;-80
2022/06/21 04:59:42;;;;;;;10.20;9.90;;;11.60;99.90;;;;;;5022598;28;20235;-79
2022/06/21 05:02:18;;;;;;;10.30;10.00;;;11.70;99.90;;;;;;5016180;28;20235;-80
2022/06/21 05:04:51;;;;;;;10.20;9.90;;;11.70;99.90;;;;;;5021418;28;20295;-81
2022/06/21 05:07:22;;;;;;;10.40;10.10;;;11.90;99.90;;;;;;5020769;28;20246;-80
2022/06/21 05:09:51;;;;;;;10.37;10.07;;;11.90;99.90;;;;;;5023179;28;20280;-80
2022/06/21 05:12:28;;;;;;;10.33;10.03;;;12.00;99.90;;;;;;5022504;28;20255;-80
2022/06/21 05:15:02;;;;;;;9.93;9.63;;;12.20;99.90;;;;;;5023229;28;20266;-80
2022/06/21 05:17:30;;;;;;;10.50;10.20;;;12.20;99.90;;;;;;5020348;28;20244;-80
2022/06/21 05:20:05;;;;;;;10.40;10.10;;;12.30;99.90;;;;;;5021652;28;20264;-79
2022/06/21 05:22:38;;;;;;;10.03;9.73;;;12.40;99.90;;;;;;5021929;28;20282;-80
2022/06/21 05:25:18;;;;;;;10.10;9.80;;;12.40;99.90;;;;;;5023871;28;20236;-80
2022/06/21 05:27:53;;;;;;;10.00;9.70;;;12.50;99.90;;;;;;5024630;28;20239;-80
2022/06/21 05:30:38;;;;;;;10.03;9.73;;;12.60;99.90;;;;;;5024125;28;20239;-80
2022/06/21 05:33:13;;;;;;;10.40;10.10;;;12.80;99.90;;;;;;5020751;28;20228;-80
2022/06/21 05:35:43;;;;;;;10.70;10.40;;;13.00;99.90;;;;;;5023691;28;20305;-80
2022/06/21 05:38:16;;;;;;;10.40;10.10;;;13.20;99.90;;;;;;5023763;28;20303;-80
2022/06/21 05:40:53;;;;;;;10.50;10.20;;;13.30;99.90;;;;;;5024374;28;20284;-80
2022/06/21 05:43:28;;;;;;;10.50;10.20;;;13.50;99.90;;;;;;5024306;28;20238;-81
2022/06/21 05:46:02;;;;;;;10.30;10.00;;;13.60;99.90;;;;;;5024446;28;20286;-80
2022/06/21 05:48:33;;;;;;;10.20;9.90;;;13.80;99.90;;;;;;5024883;28;20334;-80
2022/06/21 05:51:06;;;;;;;10.20;9.90;;;13.90;99.90;;;;;;5024246;28;20287;-81
2022/06/21 05:53:40;;;;;;;10.10;9.80;;;14.00;99.90;;;;;;5025171;28;20248;-80
2022/06/21 05:56:13;;;;;;;10.40;10.10;;;14.10;99.90;;;;;;5025521;28;20240;-79
2022/06/21 05:58:48;;;;;;;10.18;9.88;;;14.20;99.90;;;;;;5024466;28;20343;-80
2022/06/21 06:01:22;;;;;;;10.70;10.40;;;14.30;99.90;;;;;;5025286;28;20315;-79
2022/06/21 06:03:57;;;;;;;10.40;10.10;;;14.40;99.90;;;;;;5025416;28;20248;-81
2022/06/21 06:06:34;;;;;;;10.50;10.20;;;14.50;99.90;;;;;;5025045;28;20235;-81
2022/06/21 06:09:07;;;;;;;10.07;9.77;;;14.60;99.90;;;;;;5027842;28;20246;-79
2022/06/21 06:12:00;;;;;;;10.30;10.00;;;14.70;99.90;;;;;;5029173;28;20213;-80
2022/06/21 06:14:37;;;;;;;10.60;10.30;;;14.80;99.90;;;;;;5028521;28;20225;-80
2022/06/21 06:17:19;;;;;;;10.70;10.40;;;14.90;99.90;;;;;;5027811;28;20239;-81
2022/06/21 06:19:54;;;;;;;10.40;10.10;;;15.00;99.90;;;;;;5027686;28;20228;-81
2022/06/21 06:22:33;;;;;;;10.65;10.35;;;15.10;99.90;;;;;;5026729;28;20281;-79
2022/06/21 06:25:07;;;;;;;10.80;10.50;;;15.30;99.90;;;;;;5026245;28;20220;-79
2022/06/21 06:27:45;;;;;;;10.60;10.30;;;15.50;99.90;;;;;;5026247;28;20273;-79
2022/06/21 06:30:19;;;;;;;10.70;10.40;;;15.60;99.90;;;;;;5027406;28;20232;-81
2022/06/21 06:32:58;;;;;;;10.88;10.57;;;15.80;99.90;;;;;;5029171;28;20227;-79
2022/06/21 06:35:27;;;;;;;10.73;10.43;;;15.90;99.90;;;;;;5027251;28;20230;-80
2022/06/21 06:37:57;;;;;;;10.80;10.50;;;16.10;99.90;;;;;;5028292;28;20296;-80
2022/06/21 06:40:30;;;;;;;11.05;10.75;;;16.20;99.90;;;;;;5031070;28;20252;-80
2022/06/21 06:43:02;;;;;;;10.70;10.40;;;16.40;99.90;;;;;;5029944;28;20338;-79
2022/06/21 06:45:33;;;;;;;10.68;10.38;;;16.50;99.90;;;;;;5032254;28;20228;-79
2022/06/21 06:48:04;;;;;;;10.88;10.57;;;16.50;99.90;;;;;;5029809;28;20457;-80
2022/06/21 06:50:40;;;;;;;10.60;10.30;;;16.60;99.90;;;;;;5026310;28;20238;-79
2022/06/21 06:53:14;;;;;;;10.75;10.45;;;16.80;99.90;;;;;;5019602;28;20323;-76
2022/06/21 06:55:47;;;;;;;10.20;9.90;;;16.90;99.90;;;;;;5018854;28;20228;-77
2022/06/21 06:58:28;;;;;;;10.35;10.05;;;17.00;99.90;;;;;;5020569;28;20239;-80
2022/06/21 07:01:03;;;;;;;10.40;10.10;;;17.10;99.90;;;;;;5029220;28;20318;-81
2022/06/21 07:03:33;;;;;;;10.50;10.20;;;17.20;99.90;;;;;;5028728;28;20318;-82
2022/06/21 07:06:08;;;;;;;10.00;9.70;;;17.20;99.90;;;;;;5027257;28;20275;-82
2022/06/21 07:08:44;;;;;;;10.40;10.10;;;17.30;99.90;;;;;;5024311;28;20247;-81
2022/06/21 07:11:20;;;;;;;10.20;9.90;;;17.20;99.90;;;;;;5021039;28;20236;-78
2022/06/21 07:13:48;;;;;;;10.35;10.05;;;17.30;99.90;;;;;;5019186;28;20754;-77
2022/06/21 07:16:23;;;;;;;10.10;9.80;;;17.40;99.90;;;;;;5018996;28;20232;-77
2022/06/21 07:18:54;;;;;;;10.18;9.88;;;17.50;99.90;;;;;;5020733;28;20242;-78
2022/06/21 07:21:24;;;;;;;10.50;10.20;;;17.70;99.90;;;;;;5020501;28;20240;-79
2022/06/21 07:23:57;;;;;;;10.85;10.55;;;17.80;99.90;;;;;;5018025;28;20244;-78
2022/06/21 07:26:31;;;;;;;11.07;10.77;;;18.00;99.90;;;;;;5018107;28;20223;-77
2022/06/21 07:29:06;;;;;;;11.07;10.77;;;18.20;99.90;;;;;;5020687;28;20298;-77
2022/06/21 07:31:38;;;;;;;11.00;10.70;;;18.30;99.90;;;;;;5020500;28;20262;-79
2022/06/21 07:34:13;;;;;;;11.02;10.73;;;18.40;99.90;;;;;;5018499;28;20236;-77
2022/06/21 07:36:47;;;;;;;10.65;10.35;;;18.60;99.90;;;;;;5016898;28;20237;-77
2022/06/21 07:39:24;;;;;;;10.80;10.50;;;18.50;99.90;;;;;;5020143;28;20240;-78
2022/06/21 07:41:57;;;;;;;11.10;10.80;;;18.60;99.90;;;;;;5020422;28;20232;-80
2022/06/21 07:44:31;;;;;;;11.10;10.80;;;18.70;99.90;;;;;;5021990;28;20236;-80
2022/06/21 07:47:04;;;;;;;10.65;10.35;;;18.80;99.90;;;;;;5022281;28;20227;-80
2022/06/21 07:49:38;;;;;;;11.00;10.70;;;18.80;99.90;;;;;;5019903;28;20236;-78
2022/06/21 07:52:13;;;;;;;10.77;10.48;;;18.90;99.90;;;;;;5016586;28;20232;-76
2022/06/21 07:54:48;;;;;;;11.07;10.77;;;19.00;99.90;;;;;;5015286;28;20302;-79
2022/06/21 07:57:21;;;;;;;11.63;11.23;;;19.00;99.90;;;;;;5013806;28;20230;-76
2022/06/21 07:59:54;;;;;;;10.98;10.68;;;19.00;99.90;;;;;;5021619;28;20220;-78
2022/06/21 08:08:08;;;;;;;10.77;10.48;;;19.10;99.90;;;;;;5029622;28;20204;-79
2022/06/21 08:10:41;;;;;;;11.05;10.75;;;19.30;99.90;;;;;;5029031;28;20232;-78
2022/06/21 08:13:10;;;;;;;11.60;11.20;;;19.40;99.90;;;;;;5026114;28;20236;-77
2022/06/21 08:15:45;;;;;;;10.98;10.68;;;19.50;99.90;;;;;;5013664;28;20573;-77
2022/06/21 08:18:22;;;;;;;10.80;10.50;;;19.40;99.90;;;;;;5022143;28;20235;-78
2022/06/21 08:20:58;;;;;;;10.80;10.50;;;19.60;99.90;;;;;;5022239;28;20240;-76
2022/06/21 08:23:33;;;;;;;10.70;10.40;;;19.70;99.90;;;;;;5017947;28;20242;-77
2022/06/21 08:26:07;;;;;;;10.40;10.10;;;19.80;99.90;;;;;;5017752;28;20618;-78
2022/06/21 08:28:42;;;;;;;10.55;10.25;;;20.10;99.90;;;;;;5018478;28;20236;-79
2022/06/21 08:31:14;;;;;;;10.38;10.07;;;20.30;99.90;;;;;;5017464;28;20239;-77
2022/06/21 08:33:51;;;;;;;10.52;10.23;;;20.30;99.90;;;;;;5018660;28;20274;-77
2022/06/21 08:36:23;;;;;;;10.60;10.30;;;20.50;99.90;;;;;;5016640;28;20236;-77
2022/06/21 08:38:58;;;;;;;10.70;10.40;;;20.50;99.90;;;;;;5017769;28;20613;-77
2022/06/21 08:42:17;;;;;;;10.57;10.27;;;20.60;99.90;;;;;;4997933;28;20295;-77
2022/06/21 08:49:18;;;;;;;10.55;10.25;;;20.90;99.90;;;;;;4998160;28;20237;-78
2022/06/21 08:52:15;;;;;;;10.50;10.20;;;21.30;99.90;;;;;;5005217;28;20232;-78
2022/06/21 08:54:56;;;;;;;11.05;10.75;;;21.60;99.90;;;;;;5012030;28;20232;-78
2022/06/21 08:57:39;;;;;;;11.10;10.80;;;21.50;99.90;;;;;;5019974;28;20240;-79
2022/06/21 09:00:16;;;;;;;11.02;10.73;;;21.30;99.90;;;;;;5017925;28;20223;-78
2022/06/21 09:03:11;;;;;;;11.10;10.80;;;21.20;99.90;;;;;;5018318;28;20235;-78
2022/06/21 09:05:57;;;;;;;11.15;10.85;;;21.50;99.90;;;;;;5018215;28;20231;-78
2022/06/21 09:08:56;;;;;;;11.23;10.93;;;21.70;99.90;;;;;;5017621;28;20240;-77
2022/06/21 09:11:31;;;;;;;11.15;10.85;;;22.10;99.90;;;;;;5017233;28;20220;-77
2022/06/21 09:14:59;;;;;;;11.10;10.80;;;22.40;99.90;;;;;;5017952;28;20219;-78
2022/06/21 09:17:39;;;;;;;11.23;10.93;;;22.70;99.90;;;;;;4956652;28;20246;-79
2022/06/21 09:20:25;;;;;;;10.70;10.40;;;22.60;99.90;;;;;;5007510;28;20270;-79
2022/06/21 09:23:06;;;;;;;10.60;10.30;;;22.50;99.90;;;;;;5016915;28;20246;-77
2022/06/21 09:25:46;;;;;;;10.60;10.30;;;23.00;99.90;;;;;;5018426;28;20283;-77
2022/06/21 09:28:27;;;;;;;10.57;10.27;;;23.50;99.90;;;;;;5016760;28;20302;-77
2022/06/21 09:31:04;;;;;;;10.80;10.50;;;23.70;99.90;;;;;;5016345;28;20220;-77
2022/06/21 09:33:44;;;;;;;11.00;10.70;;;23.70;99.90;;;;;;5016371;28;20220;-78
2022/06/21 09:36:22;;;;;;;11.02;10.73;;;23.80;99.90;;;;;;5016752;28;20232;-78
2022/06/21 09:39:05;;;;;;;11.10;10.80;;;23.80;99.90;;;;;;5017098;28;20235;-78
2022/06/21 09:41:44;;;;;;;11.60;11.20;;;23.80;99.90;;;;;;5022531;28;20232;-80
2022/06/21 09:44:16;;;;;;;11.77;11.38;;;24.00;99.90;;;;;;5020860;28;20303;-77
2022/06/21 09:46:54;;;;;;;11.48;11.07;;;23.80;99.90;;;;;;5025442;28;20228;-77
2022/06/21 09:49:37;;;;;;;11.57;11.18;;;24.20;99.90;;;;;;5024279;28;20235;-77
2022/06/21 09:52:17;;;;;;;11.48;11.07;;;24.50;99.90;;;;;;5023498;28;20231;-78
2022/06/21 09:54:57;;;;;;;11.55;11.15;;;24.70;99.90;;;;;;5022352;28;20230;-77
2022/06/21 09:57:33;;;;;;;11.52;11.13;;;25.00;99.90;;;;;;5020261;28;20219;-77
2022/06/21 10:00:08;;;;;;;11.30;10.98;;;24.90;99.90;;;;;;5020389;28;20236;-77
2022/06/21 10:06:09;;;;;;;11.60;11.20;;;25.20;99.90;;;;;;5022210;28;20322;-87
2022/06/21 10:09:13;;;;;;;11.52;11.13;;;25.50;99.90;;;;;;5022578;28;20224;-87
2022/06/21 10:23:57;;;;;;;11.30;11.00;;;25.40;99.90;;;;;;4884849;29;20265;-89
2022/06/21 11:04:40;;;;;;;11.18;10.88;;;27.50;99.90;;;;;;5021223;28;20249;-83
2022/06/21 11:07:16;;;;;;;11.93;11.52;;;27.80;99.90;;;;;;5023442;28;20263;-82
2022/06/21 11:09:54;;;;;;;11.77;11.38;;;28.10;99.90;;;;;;5023913;28;20244;-84
2022/06/21 11:15:30;;;;;;;11.85;11.45;;;27.80;99.90;;;;;;5025623;28;20228;-85
2022/06/21 11:18:15;;;;;;;11.63;11.23;;;27.60;99.90;;;;;;5023895;28;20228;-83
2022/06/21 11:21:06;;;;;;;11.27;10.98;;;27.60;99.90;;;;;;5022960;28;20232;-83
2022/06/21 11:23:49;;;;;;;11.55;11.15;;;28.00;99.90;;;;;;5023148;28;20315;-84
2022/06/21 11:26:28;;;;;;;11.40;11.10;;;28.30;99.90;;;;;;5021875;28;20228;-84
2022/06/21 11:29:15;;;;;;;11.68;11.27;;;28.60;99.90;;;;;;5023247;28;20243;-86
2022/06/21 11:31:55;;;;;;;11.90;11.50;;;28.80;99.90;;;;;;5026020;28;20234;-83
2022/06/21 11:37:44;;;;;;;11.60;11.20;;;28.80;99.90;;;;;;5005958;28;20236;-83
2022/06/21 11:40:33;;;;;;;11.93;11.52;;;28.70;99.90;;;;;;5006380;28;20232;-84
2022/06/21 11:43:03;;;;;;;12.10;11.70;;;28.50;99.90;;;;;;5013130;28;20304;-84
2022/06/21 11:45:48;;;;;;;12.02;11.63;;;28.60;99.90;;;;;;5024372;28;20232;-84
2022/06/21 11:48:53;;;;;;;11.90;11.50;;;28.40;99.90;;;;;;5022254;28;20243;-83
2022/06/21 11:52:17;;;;;;;11.93;11.52;;;28.40;99.90;;;;;;5022466;28;20319;-88
2022/06/21 11:59:57;;;;;;;11.27;10.98;;;28.40;99.90;;;;;;4924123;29;20235;-90
2022/06/21 12:06:45;;;;;;;11.15;10.85;;;28.20;99.90;;;;;;4874576;29;20279;-81
2022/06/21 12:09:49;;;;;;;11.25;10.95;;;28.20;99.90;;;;;;4999367;28;20304;-87
2022/06/21 12:12:45;;;;;;;12.30;11.90;;;28.20;99.90;;;;;;4999160;28;20611;-88
2022/06/21 12:15:49;;;;;;;11.70;11.30;;;28.60;99.90;;;;;;5020814;28;20251;-81
2022/06/21 12:18:22;;;;;;;11.70;11.30;;;28.80;99.90;;;;;;5023994;28;20224;-84
2022/06/21 12:25:46;;;;;;;11.80;11.40;;;29.20;99.90;;;;;;4937078;28;20237;-85
2022/06/21 12:28:38;;;;;;;11.82;11.43;;;28.70;99.90;;;;;;5021295;28;20291;-85
2022/06/21 12:31:18;;;;;;;11.27;10.98;;;28.30;99.90;;;;;;5021736;28;20255;-86
2022/06/21 12:37:41;;;;;;;11.48;11.10;;;29.00;99.90;;;;;;4963908;28;20242;-85
2022/06/21 12:40:22;;;;;;;11.35;11.05;;;29.40;99.90;;;;;;5002663;28;20224;-88
2022/06/21 12:43:18;;;;;;;11.20;10.90;;;29.60;99.90;;;;;;5008607;28;20221;-86
2022/06/21 12:46:04;;;;;;;11.35;11.05;;;29.90;99.90;;;;;;5005968;28;20236;-85
2022/06/21 12:49:09;;;;;;;11.05;10.75;;;30.00;99.90;;;;;;5014677;28;20235;-87
2022/06/21 12:51:45;;;;;;;10.90;10.60;;;29.80;98.80;;;;;;5021307;28;20301;-86
2022/06/21 12:54:41;;;;;;;10.90;10.60;;;30.10;99.80;;;;;;5022514;28;20310;-85
2022/06/21 12:57:38;;;;;;;11.00;10.70;;;30.60;99.90;;;;;;5023180;28;20259;-87
2022/06/21 13:00:27;;;;;;;10.93;10.63;;;31.30;99.90;;;;;;5024113;28;20228;-86
2022/06/21 13:03:22;;;;;;;11.15;10.85;;;31.70;99.90;;;;;;5022268;28;20547;-86
2022/06/21 13:06:27;;;;;;;11.05;10.75;;;32.10;99.40;;;;;;5023890;28;20619;-86
2022/06/21 13:09:21;;;;;;;11.30;11.00;;;31.80;98.40;;;;;;5026351;28;20242;-85
2022/06/21 13:12:08;;;;;;;11.20;10.90;;;31.40;97.40;;;;;;5029458;28;20236;-85
2022/06/21 13:15:04;;;;;;;11.50;11.15;;;30.60;97.60;;;;;;5032152;28;20267;-84
2022/06/21 13:18:01;;;;;;;11.40;11.10;;;30.10;98.00;;;;;;5029484;28;20213;-82
2022/06/21 13:20:38;;;;;;;11.52;11.23;;;29.80;99.90;;;;;;5030250;28;20243;-85
2022/06/21 13:23:24;;;;;;;11.50;11.20;;;29.90;99.90;;;;;;5024203;28;20236;-86
2022/06/21 13:26:03;;;;;;;11.48;11.18;;;30.40;99.20;;;;;;5024707;28;20235;-84
2022/06/21 13:28:49;;;;;;;11.07;10.77;;;30.40;97.70;;;;;;5024344;28;20252;-84
2022/06/21 13:31:28;;;;;;;11.15;10.85;;;30.60;98.20;;;;;;5023067;28;20244;-85
2022/06/21 13:34:06;;;;;;;10.90;10.60;;;30.60;97.60;;;;;;5024765;28;20239;-81
2022/06/21 13:36:49;;;;;;;11.05;10.75;;;30.90;97.90;;;;;;5023368;28;20228;-81
2022/06/21 13:39:34;;;;;;;11.02;10.73;;;31.00;96.30;;;;;;5021832;28;20236;-81
2022/06/21 13:45:05;;;;;;;11.00;10.70;;;30.70;95.60;;;;;;5021328;28;20255;-81
2022/06/21 13:47:46;;;;;;;11.27;10.98;;;30.90;97.50;;;;;;5015169;28;20342;-82
2022/06/21 13:50:33;;;;;;;11.23;10.93;;;31.20;94.50;;;;;;5021287;28;20230;-81
2022/06/21 13:53:20;;;;;;;11.40;11.10;;;31.00;93.30;;;;;;5023436;28;20247;-82
2022/06/21 13:55:58;;;;;;;11.40;11.10;;;30.90;93.10;;;;;;5021773;28;20291;-82
2022/06/21 13:58:37;;;;;;;11.43;11.13;;;31.00;95.00;;;;;;5021691;28;20228;-81
2022/06/21 14:01:21;;;;;;;11.68;11.27;;;31.40;95.10;;;;;;5021555;28;20236;-82
2022/06/21 14:04:18;;;;;;;11.23;10.93;;;32.10;93.30;;;;;;5021776;28;20713;-82
2022/06/21 14:06:57;;;;;;;11.32;11.02;;;32.40;92.50;;;;;;5021992;28;20264;-81
2022/06/21 14:09:33;;;;;;;11.35;11.05;;;32.50;91.40;;;;;;5023432;28;20231;-82
2022/06/21 14:12:13;;;;;;;11.18;10.88;;;32.50;90.70;;;;;;5022194;28;20294;-83
2022/06/21 14:14:58;;;;;;;11.13;10.82;;;32.20;91.70;;;;;;5020731;28;20274;-82
2022/06/21 14:17:38;;;;;;;11.32;11.02;;;32.30;91.50;;;;;;5006900;28;20228;-80
2022/06/21 14:23:33;;;;;;;11.07;10.77;;;32.90;88.80;;;;;;5023281;28;20225;-82
2022/06/21 14:26:08;;;;;;;11.00;10.70;;;32.90;87.30;;;;;;5022603;28;20267;-82
2022/06/21 14:28:47;;;;;;;11.00;10.70;;;32.80;89.90;;;;;;5024736;28;20224;-82
2022/06/21 14:31:26;;;;;;;11.00;10.70;;;32.80;88.90;;;;;;5026692;28;20236;-82
2022/06/21 14:34:04;;;;;;;10.95;10.65;;;33.00;84.50;;;;;;5028569;28;20224;-82
2022/06/21 14:36:46;;;;;;;10.70;10.40;;;33.00;85.10;;;;;;5026033;28;20224;-81
2022/06/21 14:39:23;;;;;;;10.77;10.48;;;33.20;84.90;;;;;;5026423;28;20212;-81
2022/06/21 14:41:58;;;;;;;10.80;10.50;;;33.30;86.10;;;;;;5026125;28;20228;-81
2022/06/21 14:44:37;;;;;;;10.80;10.50;;;33.30;86.90;;;;;;5025126;28;20220;-82
2022/06/21 14:50:12;;;;;;;10.50;10.20;;;33.40;80.70;;;;;;5021132;28;20236;-83
2022/06/21 14:53:16;;;;;;;10.80;10.50;;;33.00;79.60;;;;;;5024684;28;20224;-82
2022/06/21 14:56:02;;;;;;;10.63;10.32;;;32.60;79.50;;;;;;5018569;28;20260;-81
2022/06/21 14:58:49;;;;;;;10.60;10.30;;;32.70;78.70;;;;;;5026242;28;20247;-82
2022/06/21 15:01:37;;;;;;;10.52;10.23;;;32.70;82.30;;;;;;5028302;28;20236;-84
2022/06/21 15:04:26;;;;;;;10.65;10.35;;;32.80;79.00;;;;;;5022333;28;20242;-82
2022/06/21 15:07:27;;;;;;;10.60;10.30;;;33.00;81.00;;;;;;5025761;28;20236;-83
2022/06/21 15:10:08;;;;;;;11.45;11.15;;;32.90;78.80;;;;;;5025996;28;20263;-84
2022/06/21 15:12:45;;;;;;;11.18;10.88;;;32.80;79.30;;;;;;5025980;28;20258;-83
2022/06/21 15:15:21;;;;;;;10.93;10.63;;;32.70;78.00;;;;;;5025235;28;20275;-83